Yakima, WA (98909)

4:27 AM PDT on August 02, 2015 (GMT -0700)
3 Miles West of Wiley City | | Change Station
CLOSE
Current Station
Personal Weather Station
Location: Yakima, WA
Elevation: 1529 ft
Nearby Weather Stations
Active Advisory: Heat Advisory Active Notice: Record Report

Elev 1529 ft 46.54 °N, 120.71 °W | Updated 6 seconds ago

Clear
Clear
61.1 °F
Feels Like 61.1 °F
N
0.0
Wind Variable Wind from WSW
Gusts 0.0 mph

Today
High -- | Low -- °F
--% Chance of Precip.
Yesterday
High -- | Low -- °F
Precip. -- in
5:44 AM 8:32 PM
Waning Gibbous, 94% visible
Pressure 29.83 in
Visibility 10.0 miles
Clouds Clear
Dew Point 26 °F
Humidity 26%
Rainfall 0.00 in
Snow Depth Not available.
UV 0 out of 12
Pollen 5.80 out of 12
Air Quality Not available.
Flu Activity Not available.
METAR KYKM 021053Z AUTO 26006KT 10SM CLR 17/06 A2986 RMK AO2 SLP101 T01670061

More Conditions Fewer Conditions

Pressure 29.83 in
Visibility 10.0 miles
Clouds Clear
Dew Point 26 °F
Humidity 26%
Rainfall 0.00 in
Snow Depth Not available.
UV 0 out of 12
Pollen 5.80 out of 12
Air Quality Not available.
Flu Activity Not available.
METAR KYKM 021053Z AUTO 26006KT 10SM CLR 17/06 A2986 RMK AO2 SLP101 T01670061

More Conditions Fewer Conditions

10-Day Weather Forecast

×

Almanac

Astronomy

Aug. 02, 2015 Rise Set
Actual Time
Civil Twilight
Nautical Twilight
Astronomical Twilight
Moon
Length of Visible Light
Length of Day
Tomorrow will be .
, % of the Moon is Illuminated

Today's Extremes

State Highs State Lows

Community

WunderPhotos

Upload Photos

1,843,233 photos uploaded!

WunderBlogs® & News

Nearby

Air Quality

  Air Quality AQ Index Pollutant
Not available.

Snow Depth

Station Depth Elevation

Earthquake Activity

City Distance Mag. Time & Date
Minimum magnitude displayed is 2.5.

Coastal Water Temperatures

Place Temperature

Stations

Nearby Weather Stations

Station Location Temp. Windchill Dew Point Humidity Wind Precip. Elev Updated Type
                   
Heat Advisory
Statement as of 10:37 PM PDT on August 01, 2015

... Heat advisory remains in effect until 9 PM PDT Sunday...

* high temperatures... 101 to 106.

* Timing... the hottest times of the day will be from noon until
7 PM.

* Impacts... the potential exists for heat exhaustion and heat
stroke due to the hot temperatures. Do not leave your children
or pets in a hot car. Do not over exert yourself outdoors
during the hottest times of the day.

Precautionary/preparedness actions...

A heat advisory means that a period of hot temperatures is
expected. The combination of hot daytime temperatures and warm
overnight low temperatures will combine to create a situation in
which heat illnesses are possible. Drink plenty of fluids... stay
in an air-conditioned room... stay out of the sun... and check up
on relatives and neighbors.